sensor_id;sensor_type;location;lat;lon;timestamp;P1;durP1;ratioP1;P2;durP2;ratioP2
67768;SDS011;54569;52.018;5.584;2023-05-10T00:00:12;32.30;;;23.73;;
67768;SDS011;54569;52.018;5.584;2023-05-10T00:02:38;33.60;;;21.60;;
67768;SDS011;54569;52.018;5.584;2023-05-10T00:05:04;32.70;;;24.05;;
67768;SDS011;54569;52.018;5.584;2023-05-10T00:07:30;34.35;;;24.70;;
67768;SDS011;54569;52.018;5.584;2023-05-10T00:09:56;34.25;;;24.08;;
67768;SDS011;54569;52.018;5.584;2023-05-10T00:12:22;34.20;;;25.13;;
67768;SDS011;54569;52.018;5.584;2023-05-10T00:14:47;34.20;;;23.40;;
67768;SDS011;54569;52.018;5.584;2023-05-10T00:17:13;41.15;;;26.98;;
67768;SDS011;54569;52.018;5.584;2023-05-10T00:19:39;38.30;;;25.27;;
67768;SDS011;54569;52.018;5.584;2023-05-10T00:22:05;37.83;;;25.85;;
67768;SDS011;54569;52.018;5.584;2023-05-10T00:24:31;37.22;;;25.60;;
67768;SDS011;54569;52.018;5.584;2023-05-10T00:26:56;43.15;;;28.50;;
67768;SDS011;54569;52.018;5.584;2023-05-10T00:29:25;39.53;;;27.55;;
67768;SDS011;54569;52.018;5.584;2023-05-10T00:31:53;41.35;;;27.58;;
67768;SDS011;54569;52.018;5.584;2023-05-10T00:34:18;39.92;;;27.23;;
67768;SDS011;54569;52.018;5.584;2023-05-10T00:36:44;42.15;;;26.58;;
67768;SDS011;54569;52.018;5.584;2023-05-10T00:39:09;42.92;;;27.00;;
67768;SDS011;54569;52.018;5.584;2023-05-10T00:41:35;42.42;;;27.50;;
67768;SDS011;54569;52.018;5.584;2023-05-10T00:44:03;41.47;;;27.73;;
67768;SDS011;54569;52.018;5.584;2023-05-10T00:46:29;40.78;;;27.20;;
67768;SDS011;54569;52.018;5.584;2023-05-10T00:48:55;41.72;;;27.50;;
67768;SDS011;54569;52.018;5.584;2023-05-10T00:51:21;41.30;;;27.08;;
67768;SDS011;54569;52.018;5.584;2023-05-10T00:53:47;42.15;;;26.02;;
67768;SDS011;54569;52.018;5.584;2023-05-10T00:56:15;41.30;;;26.75;;
67768;SDS011;54569;52.018;5.584;2023-05-10T00:58:41;39.83;;;25.02;;
67768;SDS011;54569;52.018;5.584;2023-05-10T01:01:07;40.45;;;26.42;;
67768;SDS011;54569;52.018;5.584;2023-05-10T01:03:34;41.88;;;26.83;;
67768;SDS011;54569;52.018;5.584;2023-05-10T01:06:01;39.50;;;25.70;;
67768;SDS011;54569;52.018;5.584;2023-05-10T01:08:26;42.30;;;25.90;;
67768;SDS011;54569;52.018;5.584;2023-05-10T01:10:53;41.13;;;25.67;;
67768;SDS011;54569;52.018;5.584;2023-05-10T01:13:30;39.95;;;26.05;;
67768;SDS011;54569;52.018;5.584;2023-05-10T01:15:58;36.38;;;24.70;;
67768;SDS011;54569;52.018;5.584;2023-05-10T01:18:26;40.30;;;25.55;;
67768;SDS011;54569;52.018;5.584;2023-05-10T01:21:01;40.35;;;25.23;;
67768;SDS011;54569;52.018;5.584;2023-05-10T01:32:47;36.72;;;23.20;;
67768;SDS011;54569;52.018;5.584;2023-05-10T01:35:25;41.45;;;24.35;;
67768;SDS011;54569;52.018;5.584;2023-05-10T01:38:16;44.42;;;26.48;;
67768;SDS011;54569;52.018;5.584;2023-05-10T01:40:47;39.72;;;24.67;;
67768;SDS011;54569;52.018;5.584;2023-05-10T01:43:28;44.15;;;26.02;;
67768;SDS011;54569;52.018;5.584;2023-05-10T01:46:16;41.22;;;25.02;;
67768;SDS011;54569;52.018;5.584;2023-05-10T01:48:48;39.10;;;22.92;;
67768;SDS011;54569;52.018;5.584;2023-05-10T01:51:26;41.45;;;25.05;;
67768;SDS011;54569;52.018;5.584;2023-05-10T01:54:00;46.63;;;25.98;;
67768;SDS011;54569;52.018;5.584;2023-05-10T01:56:30;43.10;;;26.45;;
67768;SDS011;54569;52.018;5.584;2023-05-10T02:01:33;42.75;;;24.13;;
67768;SDS011;54569;52.018;5.584;2023-05-10T02:04:01;46.88;;;27.45;;
67768;SDS011;54569;52.018;5.584;2023-05-10T02:06:28;47.03;;;26.27;;
67768;SDS011;54569;52.018;5.584;2023-05-10T02:08:53;49.85;;;27.27;;
67768;SDS011;54569;52.018;5.584;2023-05-10T02:11:20;46.97;;;27.17;;
67768;SDS011;54569;52.018;5.584;2023-05-10T02:13:47;53.25;;;27.20;;
67768;SDS011;54569;52.018;5.584;2023-05-10T02:16:15;48.38;;;27.33;;
67768;SDS011;54569;52.018;5.584;2023-05-10T02:18:43;51.05;;;27.13;;
67768;SDS011;54569;52.018;5.584;2023-05-10T02:21:10;46.55;;;26.95;;
67768;SDS011;54569;52.018;5.584;2023-05-10T02:23:38;49.72;;;28.52;;
67768;SDS011;54569;52.018;5.584;2023-05-10T02:26:04;48.22;;;27.13;;
67768;SDS011;54569;52.018;5.584;2023-05-10T02:28:31;50.28;;;28.35;;
67768;SDS011;54569;52.018;5.584;2023-05-10T02:30:58;52.38;;;28.15;;
67768;SDS011;54569;52.018;5.584;2023-05-10T02:33:24;52.28;;;27.95;;
67768;SDS011;54569;52.018;5.584;2023-05-10T02:35:51;49.20;;;27.85;;
67768;SDS011;54569;52.018;5.584;2023-05-10T02:38:18;50.45;;;28.60;;
67768;SDS011;54569;52.018;5.584;2023-05-10T02:40:46;48.30;;;27.65;;
67768;SDS011;54569;52.018;5.584;2023-05-10T02:43:14;50.80;;;28.70;;
67768;SDS011;54569;52.018;5.584;2023-05-10T02:45:42;47.83;;;28.67;;
67768;SDS011;54569;52.018;5.584;2023-05-10T02:48:08;47.38;;;27.63;;
67768;SDS011;54569;52.018;5.584;2023-05-10T02:50:34;49.35;;;29.25;;
67768;SDS011;54569;52.018;5.584;2023-05-10T02:53:15;48.70;;;28.95;;
67768;SDS011;54569;52.018;5.584;2023-05-10T02:55:47;49.47;;;29.27;;
67768;SDS011;54569;52.018;5.584;2023-05-10T02:58:16;46.75;;;27.40;;
67768;SDS011;54569;52.018;5.584;2023-05-10T03:00:44;49.08;;;29.15;;
67768;SDS011;54569;52.018;5.584;2023-05-10T03:03:11;46.72;;;27.60;;
67768;SDS011;54569;52.018;5.584;2023-05-10T03:05:37;53.33;;;29.48;;
67768;SDS011;54569;52.018;5.584;2023-05-10T03:08:03;48.38;;;27.98;;
67768;SDS011;54569;52.018;5.584;2023-05-10T03:10:30;48.85;;;28.92;;
67768;SDS011;54569;52.018;5.584;2023-05-10T03:15:54;49.97;;;30.17;;
67768;SDS011;54569;52.018;5.584;2023-05-10T03:18:22;52.00;;;32.30;;
67768;SDS011;54569;52.018;5.584;2023-05-10T03:20:57;51.53;;;30.33;;
67768;SDS011;54569;52.018;5.584;2023-05-10T03:26:24;49.38;;;27.98;;
67768;SDS011;54569;52.018;5.584;2023-05-10T03:29:05;48.30;;;29.48;;
67768;SDS011;54569;52.018;5.584;2023-05-10T03:31:33;49.78;;;29.00;;
67768;SDS011;54569;52.018;5.584;2023-05-10T03:33:59;49.97;;;29.38;;
67768;SDS011;54569;52.018;5.584;2023-05-10T03:36:26;47.88;;;29.45;;
67768;SDS011;54569;52.018;5.584;2023-05-10T03:38:52;51.85;;;29.33;;
67768;SDS011;54569;52.018;5.584;2023-05-10T03:41:18;45.75;;;26.58;;
67768;SDS011;54569;52.018;5.584;2023-05-10T03:43:44;40.03;;;25.45;;
67768;SDS011;54569;52.018;5.584;2023-05-10T03:46:09;48.65;;;28.30;;
67768;SDS011;54569;52.018;5.584;2023-05-10T03:48:35;46.75;;;28.85;;
67768;SDS011;54569;52.018;5.584;2023-05-10T03:51:01;52.15;;;27.15;;
67768;SDS011;54569;52.018;5.584;2023-05-10T03:53:27;56.97;;;30.13;;
67768;SDS011;54569;52.018;5.584;2023-05-10T03:55:52;50.38;;;28.13;;
67768;SDS011;54569;52.018;5.584;2023-05-10T03:58:18;54.58;;;28.00;;
67768;SDS011;54569;52.018;5.584;2023-05-10T04:00:44;51.63;;;27.42;;
67768;SDS011;54569;52.018;5.584;2023-05-10T04:03:11;48.90;;;26.55;;
67768;SDS011;54569;52.018;5.584;2023-05-10T04:05:37;49.95;;;27.08;;
67768;SDS011;54569;52.018;5.584;2023-05-10T04:08:03;49.95;;;27.33;;
67768;SDS011;54569;52.018;5.584;2023-05-10T04:10:29;48.33;;;26.45;;
67768;SDS011;54569;52.018;5.584;2023-05-10T04:12:57;48.95;;;26.45;;
67768;SDS011;54569;52.018;5.584;2023-05-10T04:15:22;52.33;;;27.85;;
67768;SDS011;54569;52.018;5.584;2023-05-10T04:17:48;46.42;;;25.35;;
67768;SDS011;54569;52.018;5.584;2023-05-10T04:20:14;48.58;;;24.63;;
67768;SDS011;54569;52.018;5.584;2023-05-10T04:22:39;41.83;;;24.63;;
67768;SDS011;54569;52.018;5.584;2023-05-10T04:25:06;51.60;;;26.20;;
67768;SDS011;54569;52.018;5.584;2023-05-10T04:27:32;54.13;;;27.73;;
67768;SDS011;54569;52.018;5.584;2023-05-10T04:29:59;44.55;;;24.42;;
67768;SDS011;54569;52.018;5.584;2023-05-10T04:32:38;47.08;;;25.42;;
67768;SDS011;54569;52.018;5.584;2023-05-10T04:35:13;44.42;;;24.83;;
67768;SDS011;54569;52.018;5.584;2023-05-10T04:37:39;46.35;;;24.75;;
67768;SDS011;54569;52.018;5.584;2023-05-10T04:40:05;44.65;;;24.38;;
67768;SDS011;54569;52.018;5.584;2023-05-10T04:42:31;42.50;;;23.77;;
67768;SDS011;54569;52.018;5.584;2023-05-10T04:44:57;44.10;;;23.40;;
67768;SDS011;54569;52.018;5.584;2023-05-10T04:47:23;51.08;;;26.45;;
67768;SDS011;54569;52.018;5.584;2023-05-10T04:49:48;48.15;;;25.50;;
67768;SDS011;54569;52.018;5.584;2023-05-10T04:52:14;46.83;;;24.00;;
67768;SDS011;54569;52.018;5.584;2023-05-10T04:54:42;45.47;;;23.98;;
67768;SDS011;54569;52.018;5.584;2023-05-10T04:57:07;49.53;;;23.90;;
67768;SDS011;54569;52.018;5.584;2023-05-10T04:59:35;54.72;;;26.13;;
67768;SDS011;54569;52.018;5.584;2023-05-10T05:02:01;52.17;;;26.10;;
67768;SDS011;54569;52.018;5.584;2023-05-10T05:04:27;50.40;;;25.15;;
67768;SDS011;54569;52.018;5.584;2023-05-10T05:06:53;50.65;;;27.17;;
67768;SDS011;54569;52.018;5.584;2023-05-10T05:09:18;49.63;;;25.40;;
67768;SDS011;54569;52.018;5.584;2023-05-10T05:11:44;55.42;;;27.30;;
67768;SDS011;54569;52.018;5.584;2023-05-10T05:14:09;48.50;;;25.48;;
67768;SDS011;54569;52.018;5.584;2023-05-10T05:16:35;49.75;;;25.90;;
67768;SDS011;54569;52.018;5.584;2023-05-10T05:19:01;59.78;;;26.92;;
67768;SDS011;54569;52.018;5.584;2023-05-10T05:21:26;54.85;;;26.13;;
67768;SDS011;54569;52.018;5.584;2023-05-10T05:23:52;60.88;;;28.15;;
67768;SDS011;54569;52.018;5.584;2023-05-10T05:26:18;52.03;;;27.83;;
67768;SDS011;54569;52.018;5.584;2023-05-10T05:28:43;55.00;;;28.75;;
67768;SDS011;54569;52.018;5.584;2023-05-10T05:31:10;53.03;;;28.35;;
67768;SDS011;54569;52.018;5.584;2023-05-10T05:33:36;62.65;;;28.98;;
67768;SDS011;54569;52.018;5.584;2023-05-10T05:36:02;56.67;;;28.17;;
67768;SDS011;54569;52.018;5.584;2023-05-10T05:38:29;52.08;;;26.67;;
67768;SDS011;54569;52.018;5.584;2023-05-10T05:40:55;51.45;;;25.40;;
67768;SDS011;54569;52.018;5.584;2023-05-10T05:43:20;49.58;;;27.25;;
67768;SDS011;54569;52.018;5.584;2023-05-10T05:45:46;52.50;;;27.20;;
67768;SDS011;54569;52.018;5.584;2023-05-10T05:48:12;49.53;;;26.20;;
67768;SDS011;54569;52.018;5.584;2023-05-10T05:50:37;52.13;;;27.25;;
67768;SDS011;54569;52.018;5.584;2023-05-10T05:53:03;54.25;;;27.60;;
67768;SDS011;54569;52.018;5.584;2023-05-10T05:55:29;45.70;;;26.00;;
67768;SDS011;54569;52.018;5.584;2023-05-10T05:57:56;55.75;;;27.75;;
67768;SDS011;54569;52.018;5.584;2023-05-10T06:00:22;51.50;;;28.60;;
67768;SDS011;54569;52.018;5.584;2023-05-10T06:02:48;51.13;;;27.17;;
67768;SDS011;54569;52.018;5.584;2023-05-10T06:05:14;52.13;;;28.98;;
67768;SDS011;54569;52.018;5.584;2023-05-10T06:07:40;56.85;;;29.75;;
67768;SDS011;54569;52.018;5.584;2023-05-10T06:10:08;54.65;;;28.65;;
67768;SDS011;54569;52.018;5.584;2023-05-10T06:12:35;57.13;;;29.10;;
67768;SDS011;54569;52.018;5.584;2023-05-10T06:15:01;54.75;;;28.17;;
67768;SDS011;54569;52.018;5.584;2023-05-10T06:17:27;56.80;;;27.25;;
67768;SDS011;54569;52.018;5.584;2023-05-10T06:19:53;49.80;;;28.20;;
67768;SDS011;54569;52.018;5.584;2023-05-10T06:22:19;59.70;;;29.58;;
67768;SDS011;54569;52.018;5.584;2023-05-10T06:24:46;53.10;;;27.10;;
67768;SDS011;54569;52.018;5.584;2023-05-10T06:27:12;53.13;;;26.80;;
67768;SDS011;54569;52.018;5.584;2023-05-10T06:29:38;54.08;;;26.73;;
67768;SDS011;54569;52.018;5.584;2023-05-10T06:32:04;57.38;;;28.33;;
67768;SDS011;54569;52.018;5.584;2023-05-10T06:34:29;55.22;;;27.80;;
67768;SDS011;54569;52.018;5.584;2023-05-10T06:36:55;61.83;;;27.92;;
67768;SDS011;54569;52.018;5.584;2023-05-10T06:39:21;57.20;;;28.75;;
67768;SDS011;54569;52.018;5.584;2023-05-10T06:41:46;58.38;;;29.75;;
67768;SDS011;54569;52.018;5.584;2023-05-10T06:44:12;48.20;;;27.60;;
67768;SDS011;54569;52.018;5.584;2023-05-10T06:46:38;49.05;;;27.20;;
67768;SDS011;54569;52.018;5.584;2023-05-10T06:49:03;46.03;;;26.98;;
67768;SDS011;54569;52.018;5.584;2023-05-10T06:51:29;53.15;;;26.90;;
67768;SDS011;54569;52.018;5.584;2023-05-10T06:53:55;54.55;;;28.75;;
67768;SDS011;54569;52.018;5.584;2023-05-10T06:56:21;54.40;;;27.88;;
67768;SDS011;54569;52.018;5.584;2023-05-10T06:58:47;56.35;;;29.55;;
67768;SDS011;54569;52.018;5.584;2023-05-10T07:01:13;56.50;;;28.75;;
67768;SDS011;54569;52.018;5.584;2023-05-10T07:03:39;55.92;;;29.98;;
67768;SDS011;54569;52.018;5.584;2023-05-10T07:06:04;51.35;;;27.45;;
67768;SDS011;54569;52.018;5.584;2023-05-10T07:08:32;58.65;;;30.48;;
67768;SDS011;54569;52.018;5.584;2023-05-10T07:11:01;58.30;;;29.38;;
67768;SDS011;54569;52.018;5.584;2023-05-10T07:13:29;54.30;;;29.08;;
67768;SDS011;54569;52.018;5.584;2023-05-10T07:15:55;53.40;;;28.15;;
67768;SDS011;54569;52.018;5.584;2023-05-10T07:18:21;49.60;;;26.33;;
67768;SDS011;54569;52.018;5.584;2023-05-10T07:20:46;52.78;;;27.88;;
67768;SDS011;54569;52.018;5.584;2023-05-10T07:23:12;51.95;;;27.30;;
67768;SDS011;54569;52.018;5.584;2023-05-10T07:25:38;49.85;;;26.40;;
67768;SDS011;54569;52.018;5.584;2023-05-10T07:28:03;50.30;;;26.80;;
67768;SDS011;54569;52.018;5.584;2023-05-10T07:30:29;47.75;;;26.20;;
67768;SDS011;54569;52.018;5.584;2023-05-10T07:32:56;43.13;;;24.25;;
67768;SDS011;54569;52.018;5.584;2023-05-10T07:35:22;39.38;;;23.35;;
67768;SDS011;54569;52.018;5.584;2023-05-10T07:37:47;36.83;;;21.75;;
67768;SDS011;54569;52.018;5.584;2023-05-10T07:40:13;36.92;;;21.92;;
67768;SDS011;54569;52.018;5.584;2023-05-10T07:42:39;33.83;;;20.77;;
67768;SDS011;54569;52.018;5.584;2023-05-10T07:45:04;37.65;;;21.45;;
67768;SDS011;54569;52.018;5.584;2023-05-10T07:47:30;35.28;;;21.05;;
67768;SDS011;54569;52.018;5.584;2023-05-10T07:49:56;34.83;;;19.13;;
67768;SDS011;54569;52.018;5.584;2023-05-10T07:52:22;29.95;;;18.25;;
67768;SDS011;54569;52.018;5.584;2023-05-10T07:54:47;28.20;;;16.85;;
67768;SDS011;54569;52.018;5.584;2023-05-10T07:57:13;26.10;;;15.35;;
67768;SDS011;54569;52.018;5.584;2023-05-10T07:59:40;19.13;;;12.98;;
67768;SDS011;54569;52.018;5.584;2023-05-10T08:02:06;18.67;;;12.07;;
67768;SDS011;54569;52.018;5.584;2023-05-10T08:04:31;17.90;;;11.30;;
67768;SDS011;54569;52.018;5.584;2023-05-10T08:06:57;15.63;;;11.40;;
67768;SDS011;54569;52.018;5.584;2023-05-10T08:09:23;16.00;;;10.35;;
67768;SDS011;54569;52.018;5.584;2023-05-10T08:11:49;16.70;;;10.65;;
67768;SDS011;54569;52.018;5.584;2023-05-10T08:14:16;17.60;;;9.73;;
67768;SDS011;54569;52.018;5.584;2023-05-10T08:16:42;14.68;;;8.93;;
67768;SDS011;54569;52.018;5.584;2023-05-10T08:19:07;12.02;;;8.77;;
67768;SDS011;54569;52.018;5.584;2023-05-10T08:21:33;13.45;;;8.40;;
67768;SDS011;54569;52.018;5.584;2023-05-10T08:23:58;14.95;;;9.25;;
67768;SDS011;54569;52.018;5.584;2023-05-10T08:26:24;13.88;;;9.45;;
67768;SDS011;54569;52.018;5.584;2023-05-10T08:28:50;11.80;;;9.35;;
67768;SDS011;54569;52.018;5.584;2023-05-10T08:31:16;12.98;;;8.93;;
67768;SDS011;54569;52.018;5.584;2023-05-10T08:33:43;12.98;;;9.43;;
67768;SDS011;54569;52.018;5.584;2023-05-10T08:36:08;13.32;;;9.32;;
67768;SDS011;54569;52.018;5.584;2023-05-10T08:38:34;13.48;;;9.48;;
67768;SDS011;54569;52.018;5.584;2023-05-10T08:41:00;14.77;;;10.02;;
67768;SDS011;54569;52.018;5.584;2023-05-10T08:43:27;13.02;;;10.35;;
67768;SDS011;54569;52.018;5.584;2023-05-10T08:45:54;13.68;;;9.57;;
67768;SDS011;54569;52.018;5.584;2023-05-10T08:48:22;12.73;;;9.80;;
67768;SDS011;54569;52.018;5.584;2023-05-10T08:50:52;12.50;;;9.77;;
67768;SDS011;54569;52.018;5.584;2023-05-10T08:53:22;12.48;;;9.48;;
67768;SDS011;54569;52.018;5.584;2023-05-10T08:55:52;14.50;;;9.25;;
67768;SDS011;54569;52.018;5.584;2023-05-10T08:58:18;14.00;;;10.05;;
67768;SDS011;54569;52.018;5.584;2023-05-10T09:00:44;12.25;;;9.57;;
67768;SDS011;54569;52.018;5.584;2023-05-10T09:03:11;14.00;;;9.18;;
67768;SDS011;54569;52.018;5.584;2023-05-10T09:05:38;15.65;;;9.57;;
67768;SDS011;54569;52.018;5.584;2023-05-10T09:08:03;13.13;;;9.70;;
67768;SDS011;54569;52.018;5.584;2023-05-10T09:10:30;13.13;;;9.60;;
67768;SDS011;54569;52.018;5.584;2023-05-10T09:12:56;11.88;;;8.32;;
67768;SDS011;54569;52.018;5.584;2023-05-10T09:15:22;10.93;;;7.80;;
67768;SDS011;54569;52.018;5.584;2023-05-10T09:17:49;11.63;;;8.40;;
67768;SDS011;54569;52.018;5.584;2023-05-10T09:20:15;11.60;;;7.85;;
67768;SDS011;54569;52.018;5.584;2023-05-10T09:22:42;11.80;;;8.93;;
67768;SDS011;54569;52.018;5.584;2023-05-10T09:25:11;10.32;;;8.10;;
67768;SDS011;54569;52.018;5.584;2023-05-10T09:27:43;12.37;;;8.70;;
67768;SDS011;54569;52.018;5.584;2023-05-10T09:30:10;10.48;;;7.97;;
67768;SDS011;54569;52.018;5.584;2023-05-10T09:32:53;10.95;;;7.57;;
67768;SDS011;54569;52.018;5.584;2023-05-10T09:35:23;11.90;;;8.68;;
67768;SDS011;54569;52.018;5.584;2023-05-10T09:37:53;11.25;;;8.38;;
67768;SDS011;54569;52.018;5.584;2023-05-10T09:40:21;10.77;;;9.10;;
67768;SDS011;54569;52.018;5.584;2023-05-10T09:42:52;14.35;;;9.32;;
67768;SDS011;54569;52.018;5.584;2023-05-10T09:45:18;11.73;;;9.00;;
67768;SDS011;54569;52.018;5.584;2023-05-10T09:47:45;15.43;;;9.10;;
67768;SDS011;54569;52.018;5.584;2023-05-10T09:50:11;14.23;;;9.77;;
67768;SDS011;54569;52.018;5.584;2023-05-10T09:52:45;12.07;;;8.80;;
67768;SDS011;54569;52.018;5.584;2023-05-10T09:55:13;15.90;;;9.13;;
67768;SDS011;54569;52.018;5.584;2023-05-10T09:57:39;12.23;;;8.50;;
67768;SDS011;54569;52.018;5.584;2023-05-10T10:00:05;10.40;;;8.52;;
67768;SDS011;54569;52.018;5.584;2023-05-10T10:02:38;13.53;;;10.13;;
67768;SDS011;54569;52.018;5.584;2023-05-10T10:05:05;11.75;;;8.93;;
67768;SDS011;54569;52.018;5.584;2023-05-10T10:07:31;11.13;;;9.18;;
67768;SDS011;54569;52.018;5.584;2023-05-10T10:09:58;12.13;;;8.73;;
67768;SDS011;54569;52.018;5.584;2023-05-10T10:12:24;11.30;;;7.30;;
67768;SDS011;54569;52.018;5.584;2023-05-10T10:14:50;11.55;;;8.50;;
67768;SDS011;54569;52.018;5.584;2023-05-10T10:17:16;10.70;;;8.15;;
67768;SDS011;54569;52.018;5.584;2023-05-10T10:19:42;9.02;;;7.68;;
67768;SDS011;54569;52.018;5.584;2023-05-10T10:22:08;8.88;;;7.38;;
67768;SDS011;54569;52.018;5.584;2023-05-10T10:24:37;10.98;;;8.65;;
67768;SDS011;54569;52.018;5.584;2023-05-10T10:27:11;11.50;;;7.82;;
67768;SDS011;54569;52.018;5.584;2023-05-10T10:29:49;11.80;;;6.88;;
67768;SDS011;54569;52.018;5.584;2023-05-10T10:33:10;9.32;;;6.60;;
67768;SDS011;54569;52.018;5.584;2023-05-10T10:35:31;8.10;;;6.50;;
67768;SDS011;54569;52.018;5.584;2023-05-10T10:37:57;9.82;;;7.47;;
67768;SDS011;54569;52.018;5.584;2023-05-10T10:40:30;9.48;;;7.40;;
67768;SDS011;54569;52.018;5.584;2023-05-10T10:45:24;9.52;;;5.80;;
67768;SDS011;54569;52.018;5.584;2023-05-10T10:48:19;10.60;;;6.90;;
67768;SDS011;54569;52.018;5.584;2023-05-10T10:50:46;8.32;;;6.68;;
67768;SDS011;54569;52.018;5.584;2023-05-10T10:53:12;9.30;;;6.90;;
67768;SDS011;54569;52.018;5.584;2023-05-10T10:55:47;11.02;;;8.10;;
67768;SDS011;54569;52.018;5.584;2023-05-10T10:58:32;9.73;;;6.82;;
67768;SDS011;54569;52.018;5.584;2023-05-10T11:01:14;7.68;;;6.20;;
67768;SDS011;54569;52.018;5.584;2023-05-10T11:06:32;8.43;;;7.22;;
67768;SDS011;54569;52.018;5.584;2023-05-10T11:08:59;7.80;;;6.35;;
67768;SDS011;54569;52.018;5.584;2023-05-10T11:11:35;7.97;;;6.47;;
67768;SDS011;54569;52.018;5.584;2023-05-10T11:14:05;8.80;;;6.60;;
67768;SDS011;54569;52.018;5.584;2023-05-10T11:16:41;10.02;;;6.22;;
67768;SDS011;54569;52.018;5.584;2023-05-10T11:19:11;7.00;;;6.20;;
67768;SDS011;54569;52.018;5.584;2023-05-10T11:21:45;8.15;;;6.47;;
67768;SDS011;54569;52.018;5.584;2023-05-10T11:24:17;8.23;;;6.15;;
67768;SDS011;54569;52.018;5.584;2023-05-10T11:26:49;7.78;;;5.75;;
67768;SDS011;54569;52.018;5.584;2023-05-10T11:29:16;8.63;;;6.25;;
67768;SDS011;54569;52.018;5.584;2023-05-10T11:31:45;10.45;;;6.88;;
67768;SDS011;54569;52.018;5.584;2023-05-10T11:34:12;10.43;;;7.60;;
67768;SDS011;54569;52.018;5.584;2023-05-10T11:36:55;8.10;;;6.20;;
67768;SDS011;54569;52.018;5.584;2023-05-10T11:39:26;7.80;;;6.15;;
67768;SDS011;54569;52.018;5.584;2023-05-10T11:41:56;8.75;;;5.97;;
67768;SDS011;54569;52.018;5.584;2023-05-10T11:44:34;8.77;;;5.95;;
67768;SDS011;54569;52.018;5.584;2023-05-10T11:47:00;10.77;;;5.70;;
67768;SDS011;54569;52.018;5.584;2023-05-10T11:49:26;8.23;;;6.28;;
67768;SDS011;54569;52.018;5.584;2023-05-10T11:51:51;8.77;;;5.95;;
67768;SDS011;54569;52.018;5.584;2023-05-10T11:54:17;7.28;;;6.13;;
67768;SDS011;54569;52.018;5.584;2023-05-10T11:56:43;6.78;;;5.97;;
67768;SDS011;54569;52.018;5.584;2023-05-10T11:59:09;7.65;;;5.95;;
67768;SDS011;54569;52.018;5.584;2023-05-10T12:01:35;10.65;;;6.60;;
67768;SDS011;54569;52.018;5.584;2023-05-10T12:04:01;8.60;;;6.10;;
67768;SDS011;54569;52.018;5.584;2023-05-10T12:06:28;8.10;;;6.10;;
67768;SDS011;54569;52.018;5.584;2023-05-10T12:08:56;7.68;;;6.35;;
67768;SDS011;54569;52.018;5.584;2023-05-10T12:11:24;7.10;;;5.93;;
67768;SDS011;54569;52.018;5.584;2023-05-10T12:13:51;6.32;;;4.93;;
67768;SDS011;54569;52.018;5.584;2023-05-10T12:16:17;7.40;;;5.63;;
67768;SDS011;54569;52.018;5.584;2023-05-10T12:18:44;6.15;;;5.10;;
67768;SDS011;54569;52.018;5.584;2023-05-10T12:21:13;6.65;;;4.93;;
67768;SDS011;54569;52.018;5.584;2023-05-10T12:23:40;7.15;;;5.53;;
67768;SDS011;54569;52.018;5.584;2023-05-10T12:26:09;7.28;;;5.80;;
67768;SDS011;54569;52.018;5.584;2023-05-10T12:28:37;5.72;;;5.10;;
67768;SDS011;54569;52.018;5.584;2023-05-10T12:31:05;5.57;;;4.95;;
67768;SDS011;54569;52.018;5.584;2023-05-10T12:33:38;7.65;;;5.68;;
67768;SDS011;54569;52.018;5.584;2023-05-10T12:36:08;5.38;;;4.30;;
67768;SDS011;54569;52.018;5.584;2023-05-10T12:41:08;5.00;;;4.10;;
67768;SDS011;54569;52.018;5.584;2023-05-10T12:43:38;5.57;;;3.97;;
67768;SDS011;54569;52.018;5.584;2023-05-10T12:46:05;6.28;;;4.40;;
67768;SDS011;54569;52.018;5.584;2023-05-10T12:48:32;5.25;;;4.75;;
67768;SDS011;54569;52.018;5.584;2023-05-10T12:50:59;9.38;;;4.43;;
67768;SDS011;54569;52.018;5.584;2023-05-10T12:53:25;5.05;;;4.00;;
67768;SDS011;54569;52.018;5.584;2023-05-10T12:55:51;8.77;;;4.30;;
67768;SDS011;54569;52.018;5.584;2023-05-10T12:58:16;5.57;;;4.30;;
67768;SDS011;54569;52.018;5.584;2023-05-10T13:00:42;7.70;;;3.95;;
67768;SDS011;54569;52.018;5.584;2023-05-10T13:03:08;4.28;;;3.85;;
67768;SDS011;54569;52.018;5.584;2023-05-10T13:05:35;9.00;;;7.82;;
67768;SDS011;54569;52.018;5.584;2023-05-10T13:08:01;10.45;;;8.85;;
67768;SDS011;54569;52.018;5.584;2023-05-10T13:10:28;9.85;;;8.95;;
67768;SDS011;54569;52.018;5.584;2023-05-10T13:12:55;10.25;;;9.25;;
67768;SDS011;54569;52.018;5.584;2023-05-10T13:15:22;10.05;;;9.13;;
67768;SDS011;54569;52.018;5.584;2023-05-10T13:17:47;11.15;;;9.48;;
67768;SDS011;54569;52.018;5.584;2023-05-10T13:20:13;11.50;;;10.30;;
67768;SDS011;54569;52.018;5.584;2023-05-10T13:22:40;12.90;;;10.38;;
67768;SDS011;54569;52.018;5.584;2023-05-10T13:25:14;11.23;;;10.10;;
67768;SDS011;54569;52.018;5.584;2023-05-10T13:32:54;11.73;;;7.25;;
67768;SDS011;54569;52.018;5.584;2023-05-10T13:35:19;12.25;;;6.80;;
67768;SDS011;54569;52.018;5.584;2023-05-10T13:37:52;9.20;;;6.28;;
67768;SDS011;54569;52.018;5.584;2023-05-10T13:40:18;6.63;;;5.78;;
67768;SDS011;54569;52.018;5.584;2023-05-10T13:42:44;8.82;;;6.32;;
67768;SDS011;54569;52.018;5.584;2023-05-10T13:45:10;6.07;;;5.30;;
67768;SDS011;54569;52.018;5.584;2023-05-10T13:47:37;5.65;;;4.80;;
67768;SDS011;54569;52.018;5.584;2023-05-10T13:50:02;6.45;;;5.07;;
67768;SDS011;54569;52.018;5.584;2023-05-10T13:52:29;6.18;;;5.50;;
67768;SDS011;54569;52.018;5.584;2023-05-10T13:54:55;6.25;;;5.72;;
67768;SDS011;54569;52.018;5.584;2023-05-10T13:57:21;6.40;;;5.80;;
67768;SDS011;54569;52.018;5.584;2023-05-10T13:59:47;6.30;;;5.70;;
67768;SDS011;54569;52.018;5.584;2023-05-10T14:02:13;6.43;;;5.57;;
67768;SDS011;54569;52.018;5.584;2023-05-10T14:04:38;8.07;;;5.50;;
67768;SDS011;54569;52.018;5.584;2023-05-10T14:07:04;5.40;;;4.90;;
67768;SDS011;54569;52.018;5.584;2023-05-10T14:09:30;5.75;;;4.93;;
67768;SDS011;54569;52.018;5.584;2023-05-10T14:11:55;6.60;;;5.45;;
67768;SDS011;54569;52.018;5.584;2023-05-10T14:14:21;5.90;;;5.30;;
67768;SDS011;54569;52.018;5.584;2023-05-10T14:16:47;7.10;;;5.00;;
67768;SDS011;54569;52.018;5.584;2023-05-10T14:19:12;9.77;;;5.70;;
67768;SDS011;54569;52.018;5.584;2023-05-10T14:21:38;4.93;;;4.13;;
67768;SDS011;54569;52.018;5.584;2023-05-10T14:24:04;6.85;;;5.38;;
67768;SDS011;54569;52.018;5.584;2023-05-10T14:26:31;6.05;;;4.18;;
67768;SDS011;54569;52.018;5.584;2023-05-10T14:28:57;4.75;;;4.07;;
67768;SDS011;54569;52.018;5.584;2023-05-10T14:31:23;6.47;;;4.13;;
67768;SDS011;54569;52.018;5.584;2023-05-10T14:33:50;5.88;;;4.60;;
67768;SDS011;54569;52.018;5.584;2023-05-10T14:36:17;7.00;;;4.75;;
67768;SDS011;54569;52.018;5.584;2023-05-10T14:38:43;5.65;;;4.75;;
67768;SDS011;54569;52.018;5.584;2023-05-10T14:41:08;8.38;;;5.82;;
67768;SDS011;54569;52.018;5.584;2023-05-10T14:43:35;6.57;;;5.65;;
67768;SDS011;54569;52.018;5.584;2023-05-10T14:46:01;6.53;;;5.70;;
67768;SDS011;54569;52.018;5.584;2023-05-10T14:48:27;7.35;;;6.35;;
67768;SDS011;54569;52.018;5.584;2023-05-10T14:50:52;6.63;;;5.53;;
67768;SDS011;54569;52.018;5.584;2023-05-10T14:53:18;8.40;;;6.45;;
67768;SDS011;54569;52.018;5.584;2023-05-10T14:55:44;7.53;;;6.38;;
67768;SDS011;54569;52.018;5.584;2023-05-10T14:58:09;9.32;;;7.07;;
67768;SDS011;54569;52.018;5.584;2023-05-10T15:00:35;9.95;;;7.82;;
67768;SDS011;54569;52.018;5.584;2023-05-10T15:03:01;7.95;;;7.15;;